Time;durP1;ratioP1;P1;durP2;ratioP2;P2;SDS_P1;SDS_P2;PMS_P1;PMS_P2;Temp;Humidity;BMP_temperature;BMP_pressure;BME280_temperature;BME280_humidity;BME280_pressure;Samples;Min_cycle;Max_cycle;Signal;HPM_P1;HPM_P2
2023/05/22 00:00:12;;;;;;;;;19.00;13.75;;;;;17.96;61.62;101205.94;4827554;29;46442;-62
2023/05/22 00:02:41;;;;;;;;;17.00;14.25;;;;;17.96;61.33;101202.38;4827947;29;45469;-62
2023/05/22 00:05:09;;;;;;;;;13.75;12.50;;;;;17.95;61.49;101203.31;4834602;29;45389;-63
2023/05/22 00:07:34;;;;;;;;;16.25;13.00;;;;;18.08;61.67;101219.72;4842781;29;45629;-62
2023/05/22 00:09:59;;;;;;;;;17.75;12.50;;;;;18.05;61.86;101215.34;4828767;29;46123;-62
2023/05/22 00:12:25;;;;;;;;;14.75;13.50;;;;;18.04;61.49;101219.03;4827113;29;45484;-62
2023/05/22 00:14:51;;;;;;;;;16.75;13.50;;;;;18.01;61.06;101200.28;4828925;29;45362;-62
2023/05/22 00:17:17;;;;;;;;;14.00;13.75;;;;;17.96;61.07;101205.06;4828546;29;45414;-62
2023/05/22 00:19:42;;;;;;;;;18.75;16.75;;;;;17.94;61.28;101201.56;4828744;29;45548;-62
2023/05/22 00:22:08;;;;;;;;;15.75;15.75;;;;;17.88;61.26;101210.03;4839093;29;45690;-62
2023/05/22 00:24:33;;;;;;;;;16.00;13.50;;;;;17.78;61.60;101188.03;4828772;29;45708;-62
2023/05/22 00:26:58;;;;;;;;;18.25;16.75;;;;;17.89;61.74;101203.66;4827663;29;45481;-63
2023/05/22 00:29:24;;;;;;;;;11.50;11.50;;;;;17.84;62.09;101186.81;4827170;29;45577;-62
2023/05/22 00:31:49;;;;;;;;;14.50;14.00;;;;;17.78;61.71;101183.50;4842647;29;45450;-62
2023/05/22 00:34:15;;;;;;;;;15.00;13.75;;;;;17.87;61.40;101206.44;4842882;29;45363;-62
2023/05/22 00:36:40;;;;;;;;;15.00;14.50;;;;;17.87;61.27;101217.25;4828293;29;45433;-62
2023/05/22 00:39:05;;;;;;;;;17.00;13.75;;;;;17.78;61.51;101201.53;4842492;29;47971;-62
2023/05/22 00:41:32;;;;;;;;;16.00;14.75;;;;;17.84;61.38;101208.41;4828372;29;45311;-62
2023/05/22 00:43:59;;;;;;;;;9.50;8.25;;;;;17.90;61.63;101210.81;4828475;29;45273;-62
2023/05/22 00:46:25;;;;;;;;;13.00;13.00;;;;;17.85;61.33;101202.91;4815930;29;45527;-62
2023/05/22 00:48:51;;;;;;;;;15.25;14.25;;;;;17.85;61.47;101199.34;4828164;29;45400;-62
2023/05/22 00:51:18;;;;;;;;;14.00;14.00;;;;;17.86;61.35;101206.47;4828179;29;45337;-62
2023/05/22 00:53:45;;;;;;;;;13.50;13.50;;;;;17.85;60.92;101199.34;4842457;29;45405;-62
2023/05/22 00:56:11;;;;;;;;;14.50;12.75;;;;;17.80;61.33;101194.22;4826495;29;45363;-62
2023/05/22 00:58:37;;;;;;;;;18.75;18.50;;;;;17.81;60.89;101198.66;4826259;29;45820;-62
2023/05/22 01:01:04;;;;;;;;;12.75;12.75;;;;;17.73;61.10;101184.72;4828063;29;45287;-62
2023/05/22 01:03:30;;;;;;;;;14.75;14.00;;;;;17.78;61.20;101188.03;4831248;29;45464;-62
2023/05/22 01:05:56;;;;;;;;;12.00;9.75;;;;;17.66;60.80;101164.38;4829193;29;45532;-62
2023/05/22 01:08:22;;;;;;;;;14.50;14.50;;;;;17.72;61.04;101175.72;4841952;29;48264;-62
2023/05/22 01:10:57;;;;;;;;;14.25;14.25;;;;;17.74;61.12;101181.94;4826603;29;45387;-62
2023/05/22 01:13:41;;;;;;;;;14.75;12.50;;;;;17.66;61.51;101172.50;4827890;29;45459;-62
2023/05/22 01:16:36;;;;;;;;;15.00;14.00;;;;;17.64;61.54;101178.00;4817107;29;45575;-62
2023/05/22 01:19:29;;;;;;;;;12.00;11.50;;;;;17.68;61.71;101192.19;4827780;29;45495;-62
2023/05/22 01:22:25;;;;;;;;;13.75;13.00;;;;;17.68;61.46;101190.34;4839466;29;45443;-62
2023/05/22 01:25:05;;;;;;;;;15.25;15.25;;;;;17.62;61.15;101174.50;4828062;29;45580;-62
2023/05/22 01:27:49;;;;;;;;;12.50;12.50;;;;;17.66;60.95;101188.69;4840772;29;45540;-62
2023/05/22 01:30:33;;;;;;;;;16.75;15.50;;;;;17.68;61.43;101186.78;4827514;29;45581;-62
2023/05/22 01:33:01;;;;;;;;;12.25;12.00;;;;;17.62;61.43;101177.19;4827853;29;45364;-62
2023/05/22 01:35:29;;;;;;;;;12.25;11.25;;;;;17.67;61.68;101188.59;4827634;29;45405;-62
2023/05/22 01:37:56;;;;;;;;;14.00;13.00;;;;;17.65;61.59;101186.97;4827610;29;45422;-62
2023/05/22 01:40:22;;;;;;;;;16.75;14.25;;;;;17.68;61.19;101178.69;4827534;29;45444;-62
2023/05/22 01:42:48;;;;;;;;;12.75;12.50;;;;;17.70;61.25;101183.03;4841551;29;45492;-62
2023/05/22 01:45:13;;;;;;;;;14.50;13.00;;;;;17.70;60.99;101184.88;4827593;29;45338;-62
2023/05/22 01:47:39;;;;;;;;;13.25;12.75;;;;;17.68;61.16;101174.16;4827649;29;45390;-62
2023/05/22 01:50:05;;;;;;;;;15.25;14.75;;;;;17.77;61.22;101186.28;4826202;29;46958;-62
2023/05/22 01:52:38;;;;;;;;;13.50;11.75;;;;;17.74;61.23;101181.94;4827239;29;45340;-62
2023/05/22 01:55:21;;;;;;;;;13.50;13.50;;;;;17.73;60.90;101180.19;4827772;29;45425;-62
2023/05/22 01:58:27;;;;;;;;;11.75;10.50;;;;;17.74;61.40;101181.94;4839885;29;45723;-62
2023/05/22 02:00:55;;;;;;;;;11.75;11.75;;;;;17.73;61.36;101176.63;4810368;29;45733;-62
2023/05/22 02:03:26;;;;;;;;;10.00;10.00;;;;;17.66;61.42;101162.59;4843473;29;45476;-62
2023/05/22 02:05:54;;;;;;;;;14.00;14.00;;;;;17.72;60.99;101188.34;4828873;29;45455;-62
2023/05/22 02:08:21;;;;;;;;;12.00;11.00;;;;;17.69;61.01;101183.13;4827157;29;45541;-62
2023/05/22 02:10:50;;;;;;;;;14.25;13.75;;;;;17.69;60.69;101192.13;4831778;29;47067;-62
2023/05/22 02:13:16;;;;;;;;;14.00;12.25;;;;;17.56;60.92;101175.72;4844388;29;45406;-62
2023/05/22 02:15:45;;;;;;;;;12.25;11.75;;;;;17.58;61.25;101181.03;4842975;29;45561;-62
2023/05/22 02:18:13;;;;;;;;;10.75;10.75;;;;;17.54;60.64;101171.34;4821662;29;45694;-62
2023/05/22 02:20:38;;;;;;;;;11.00;10.00;;;;;17.56;60.78;101174.84;4846980;29;48338;-62
2023/05/22 02:23:04;;;;;;;;;14.00;12.50;;;;;17.56;60.73;101177.56;4839449;29;45524;-62
2023/05/22 02:25:29;;;;;;;;;14.75;14.75;;;;;17.58;60.50;101186.44;4830278;29;45470;-62
2023/05/22 02:27:55;;;;;;;;;13.25;11.75;;;;;17.58;60.92;101183.72;4844037;29;45486;-62
2023/05/22 02:30:20;;;;;;;;;15.50;11.75;;;;;17.55;61.00;101175.78;4830213;29;45327;-62
2023/05/22 02:32:46;;;;;;;;;13.75;11.75;;;;;17.53;61.35;101177.72;4830317;29;45398;-62
2023/05/22 02:35:11;;;;;;;;;14.75;12.50;;;;;17.51;60.83;101177.78;4844432;29;45527;-62
2023/05/22 02:37:37;;;;;;;;;12.50;11.75;;;;;17.52;60.96;101178.66;4830195;29;45491;-62
2023/05/22 02:40:06;;;;;;;;;13.25;13.25;;;;;17.47;60.84;101170.81;4826668;29;46289;-62
2023/05/22 02:42:31;;;;;;;;;12.50;12.50;;;;;17.54;60.85;101182.13;4821461;29;45391;-62
2023/05/22 02:44:57;;;;;;;;;15.00;13.75;;;;;17.50;60.72;101175.19;4844282;29;45427;-62
2023/05/22 02:47:22;;;;;;;;;13.75;11.75;;;;;17.46;60.75;101168.19;4826931;29;45899;-62
2023/05/22 02:49:47;;;;;;;;;11.75;11.00;;;;;17.48;60.65;101172.56;4843384;29;47103;-62
2023/05/22 02:52:13;;;;;;;;;15.50;14.00;;;;;17.47;60.74;101167.25;4829822;29;45378;-62
2023/05/22 02:54:38;;;;;;;;;15.00;13.75;;;;;17.52;61.00;101176.81;4830063;29;45425;-62
2023/05/22 02:57:04;;;;;;;;;12.00;11.50;;;;;17.40;60.99;101153.22;4829677;29;45342;-62
2023/05/22 02:59:30;;;;;;;;;11.75;10.75;;;;;17.52;60.89;101178.66;4829597;29;47018;-62
2023/05/22 03:01:55;;;;;;;;;17.25;12.75;;;;;17.45;60.79;101169.16;4829782;29;45408;-62
2023/05/22 03:04:21;;;;;;;;;13.00;11.00;;;;;17.47;60.66;101175.34;4835477;29;45407;-62
2023/05/22 03:06:46;;;;;;;;;13.25;11.75;;;;;17.44;60.71;101179.09;4829168;29;45495;-62
2023/05/22 03:09:12;;;;;;;;;12.25;12.25;;;;;17.42;60.99;101172.88;4843535;29;48137;-62
2023/05/22 03:11:37;;;;;;;;;14.00;12.75;;;;;17.48;60.72;101177.09;4843861;29;45363;-62
2023/05/22 03:14:02;;;;;;;;;13.25;13.25;;;;;17.38;60.99;101168.63;4828031;29;45439;-62
2023/05/22 03:16:28;;;;;;;;;13.75;12.50;;;;;17.36;60.77;101167.84;4828674;29;45588;-62
2023/05/22 03:19:13;;;;;;;;;13.00;12.50;;;;;17.37;60.44;101178.56;4829146;29;45494;-62
2023/05/22 03:21:39;;;;;;;;;14.00;14.00;;;;;17.35;60.98;101166.94;4839117;29;45326;-62
2023/05/22 03:24:05;;;;;;;;;11.75;11.75;;;;;17.34;60.80;101177.81;4829670;29;45438;-62
2023/05/22 03:26:30;;;;;;;;;13.75;12.50;;;;;17.41;60.81;101184.66;4843478;29;46101;-62
2023/05/22 03:28:56;;;;;;;;;13.50;13.50;;;;;17.38;60.66;101184.81;4828935;29;45426;-62
2023/05/22 03:31:27;;;;;;;;;17.25;16.25;;;;;17.18;61.03;101156.19;4829511;29;45534;-62
2023/05/22 03:33:52;;;;;;;;;13.50;12.75;;;;;17.30;61.14;101178.94;4829382;29;45405;-62
2023/05/22 03:36:20;;;;;;;;;12.00;12.00;;;;;17.26;61.23;101178.25;4827757;29;45405;-62
2023/05/22 03:38:45;;;;;;;;;14.50;13.50;;;;;17.15;61.10;101150.97;4829019;29;45366;-62
2023/05/22 03:41:11;;;;;;;;;17.25;12.75;;;;;17.20;61.20;101154.28;4829387;29;45253;-62
2023/05/22 03:43:36;;;;;;;;;13.50;12.50;;;;;17.19;60.92;101163.31;4829128;29;45270;-62
2023/05/22 03:46:01;;;;;;;;;12.00;12.00;;;;;17.25;60.99;101157.59;4829290;29;45320;-62
2023/05/22 03:48:26;;;;;;;;;12.75;12.00;;;;;17.17;60.82;101154.44;4841028;29;47113;-62
2023/05/22 03:50:52;;;;;;;;;11.50;11.25;;;;;17.16;61.25;101168.91;4829223;29;45667;-62
2023/05/22 03:53:17;;;;;;;;;13.75;11.75;;;;;17.15;61.10;101169.84;4829174;29;45330;-62
2023/05/22 03:55:42;;;;;;;;;14.25;13.25;;;;;17.11;61.10;101169.16;4829076;29;45339;-62
2023/05/22 03:58:08;;;;;;;;;14.00;12.75;;;;;17.07;61.17;101166.69;4828731;29;45382;-62
2023/05/22 04:00:33;;;;;;;;;15.50;14.00;;;;;17.02;61.20;101173.22;4828984;29;45484;-62
2023/05/22 04:02:59;;;;;;;;;14.00;13.25;;;;;16.98;61.28;101190.47;4828926;29;45328;-62
2023/05/22 04:05:24;;;;;;;;;12.75;12.00;;;;;16.90;61.36;101173.81;4834412;29;45457;-62
2023/05/22 04:07:49;;;;;;;;;13.75;13.50;;;;;16.94;61.28;101186.22;4842753;29;47462;-62
2023/05/22 04:10:15;;;;;;;;;13.75;12.00;;;;;16.98;61.43;101200.41;4828884;29;45397;-62
2023/05/22 04:12:40;;;;;;;;;12.50;12.50;;;;;16.97;61.74;101201.34;4828730;29;45509;-62
2023/05/22 04:15:06;;;;;;;;;11.00;11.00;;;;;16.92;61.40;101193.50;4827428;29;45452;-62
2023/05/22 04:17:32;;;;;;;;;15.00;12.25;;;;;16.96;61.52;101202.31;4826036;29;48168;-62
2023/05/22 04:19:59;;;;;;;;;14.50;14.50;;;;;16.94;61.29;101199.69;4828093;29;45372;-62
2023/05/22 04:22:49;;;;;;;;;16.00;15.25;;;;;16.93;61.54;101197.06;4854618;29;45430;-62
2023/05/22 04:25:37;;;;;;;;;;;;;;;;;;;;;
2023/05/22 04:28:16;;;;;;;;;15.00;13.25;;;;;16.77;61.95;101178.06;4816705;29;74329;-62
2023/05/22 04:31:01;;;;;;;;;13.00;13.00;;;;;16.77;61.42;101172.69;4842342;29;45561;-62
2023/05/22 04:33:47;;;;;;;;;14.50;12.50;;;;;16.65;61.63;101164.28;4842646;29;45291;-62
2023/05/22 04:36:25;;;;;;;;;13.25;13.25;;;;;16.73;61.66;101180.06;4828391;29;45656;-62
2023/05/22 04:38:56;;;;;;;;;14.25;14.25;;;;;16.89;61.43;101206.25;4815060;29;47332;-62
2023/05/22 04:41:35;;;;;;;;;;;;;;;;;;;;;
2023/05/22 04:44:03;;;;;;;;;15.50;13.75;;;;;16.73;61.66;101181.91;4827187;29;68271;-62
2023/05/22 04:46:59;;;;;;;;;;;;;;;;;;;;;
2023/05/22 04:49:47;;;;;;;;;;;;;;;;;;;;;
2023/05/22 04:52:15;;;;;;;;;12.00;12.00;;;;;16.87;61.81;101214.44;4818818;29;71863;-62
2023/05/22 04:55:00;;;;;;;;;;;;;;;;;;;;;
2023/05/22 04:57:58;;;;;;;;;;;;;;;;;;;;;
2023/05/22 05:01:01;;;;;;;;;;;;;;;;;;;;;
2023/05/22 05:03:31;;;;;;;;;16.00;15.75;;;;;16.70;62.24;101203.63;4829749;29;73281;-62
2023/05/22 05:06:08;;;;;;;;;;;;;;;;;;;;;
2023/05/22 05:08:36;;;;;;;;;18.75;17.25;;;;;16.70;62.21;101203.63;4826888;29;73045;-62
2023/05/22 05:11:11;;;;;;;;;21.75;16.75;;;;;16.64;61.99;101202.97;4827611;29;45681;-62
2023/05/22 05:13:55;;;;;;;;;;;;;;;;;;;;;
2023/05/22 05:16:42;;;;;;;;;;;;;;;;;;;;;
2023/05/22 05:19:21;;;;;;;;;;;;;;;;;;;;;
2023/05/22 05:22:07;;;;;;;;;;;;;;;;;;;;;
2023/05/22 05:24:35;;;;;;;;;18.00;17.50;;;;;16.85;61.95;101202.84;4816601;29;71750;-62
2023/05/22 05:27:10;;;;;;;;;18.50;18.50;;;;;16.67;62.33;101175.88;4841587;29;45423;-62
2023/05/22 05:29:45;;;;;;;;;14.25;12.50;;;;;16.86;62.33;101201.91;4841815;29;45528;-62
2023/05/22 05:32:16;;;;;;;;;16.75;14.25;;;;;16.66;62.30;101182.19;4825804;29;45486;-62
2023/05/22 05:35:01;;;;;;;;;;;;;;;;;;;;;
2023/05/22 05:38:05;;;;;;;;;14.00;14.00;;;;;16.63;62.06;101181.50;4826659;29;68333;-62
2023/05/22 05:40:43;;;;;;;;;;;;;;;;;;;;;
2023/05/22 05:43:19;;;;;;;;;;;;;;;;;;;;;
2023/05/22 05:46:04;;;;;;;;;;;;;;;;;;;;;
2023/05/22 05:52:32;;;;;;;;;;;;;;;;;;;;;
2023/05/22 05:55:34;;;;;;;;;;;;;;;;;;;;;
2023/05/22 05:58:26;;;;;;;;;;;;;;;;;;;;;
2023/05/22 06:01:24;;;;;;;;;;;;;;;;;;;;;
2023/05/22 06:04:02;;;;;;;;;;;;;;;;;;;;;
2023/05/22 06:06:55;;;;;;;;;18.25;14.00;;;;;16.72;62.94;101189.09;4825377;29;73770;-64
2023/05/22 06:09:40;;;;;;;;;;;;;;;;;;;;;
2023/05/22 06:12:45;;;;;;;;;;;;;;;;;;;;;
2023/05/22 06:15:48;;;;;;;;;17.50;16.25;;;;;16.78;63.31;101193.31;4824505;29;71538;-65
2023/05/22 06:18:47;;;;;;;;;;;;;;;;;;;;;
2023/05/22 06:21:31;;;;;;;;;;;;;;;;;;;;;
2023/05/22 06:24:33;;;;;;;;;;;;;;;;;;;;;
2023/05/22 06:30:39;;;;;;;;;;;;;;;;;;;;;
2023/05/22 06:33:27;;;;;;;;;;;;;;;;;;;;;
2023/05/22 06:36:07;;;;;;;;;;;;;;;;;;;;;
2023/05/22 06:57:02;;;;;;;;;;;;;;;;;;;;;
2023/05/22 07:17:12;;;;;;;;;15.75;15.50;;;;;17.15;63.52;101223.78;4663624;30;45706;-64
2023/05/22 07:40:30;;;;;;;;;19.50;16.50;;;;;17.62;62.90;101266.28;4844378;29;45430;-77
2023/05/22 07:42:55;;;;;;;;;18.50;15.25;;;;;17.67;62.99;101266.03;4859859;29;45443;-77
2023/05/22 07:45:20;;;;;;;;;22.75;19.75;;;;;17.67;62.95;101260.63;4843635;29;54755;-77
2023/05/22 07:47:46;;;;;;;;;16.75;15.00;;;;;17.72;63.18;101266.66;4840030;29;45624;-77
2023/05/22 07:50:11;;;;;;;;;16.25;15.75;;;;;17.79;62.74;101273.47;4844936;29;45243;-77
2023/05/22 07:52:37;;;;;;;;;21.75;19.25;;;;;17.77;63.26;101254.66;4845693;29;45564;-77
2023/05/22 07:55:02;;;;;;;;;19.00;18.00;;;;;17.85;62.60;101265.03;4860207;29;45418;-77
2023/05/22 07:57:28;;;;;;;;;21.00;17.00;;;;;17.86;62.77;101257.78;4844853;29;46876;-77
2023/05/22 07:59:54;;;;;;;;;17.00;17.00;;;;;17.97;62.94;101266.22;4845724;29;45666;-77
2023/05/22 08:02:19;;;;;;;;;19.75;18.00;;;;;18.03;62.67;101268.59;4845224;29;45304;-77
2023/05/22 08:04:45;;;;;;;;;16.75;15.00;;;;;18.05;62.67;101269.38;4845667;29;45386;-76
2023/05/22 08:07:10;;;;;;;;;17.25;15.50;;;;;18.09;62.26;101278.16;4844705;29;45421;-76
2023/05/22 08:09:35;;;;;;;;;16.75;14.00;;;;;18.12;62.53;101275.31;4845538;29;45467;-77
2023/05/22 08:12:02;;;;;;;;;24.75;23.50;;;;;18.14;62.40;101276.09;4845629;29;45426;-77
2023/05/22 08:14:27;;;;;;;;;16.75;16.75;;;;;18.14;62.23;101266.19;4846021;29;45279;-78
2023/05/22 08:16:53;;;;;;;;;15.25;13.75;;;;;18.24;62.73;101273.75;4843695;29;45484;-77
2023/05/22 08:19:18;;;;;;;;;18.25;15.00;;;;;18.15;62.12;101262.50;4844292;29;45948;-77
2023/05/22 08:21:43;;;;;;;;;15.75;15.75;;;;;18.17;62.18;101265.09;4844339;29;45264;-77
2023/05/22 08:24:09;;;;;;;;;20.75;18.00;;;;;18.27;62.82;101282.53;4844841;29;45301;-77
2023/05/22 08:26:34;;;;;;;;;21.50;16.50;;;;;18.35;62.59;101292.94;4845960;29;45912;-78
2023/05/22 08:29:00;;;;;;;;;20.50;19.25;;;;;18.33;62.33;101278.66;4844502;29;45345;-79
2023/05/22 08:31:28;;;;;;;;;18.75;17.50;;;;;18.39;62.53;101280.13;4845824;29;45660;-77
2023/05/22 08:33:55;;;;;;;;;20.00;17.00;;;;;18.46;62.26;101281.50;4844645;29;46350;-77
2023/05/22 08:36:22;;;;;;;;;20.25;16.00;;;;;18.37;61.96;101260.41;4844780;29;46582;-77
2023/05/22 08:38:47;;;;;;;;;24.75;20.50;;;;;18.55;62.76;101285.53;4844332;29;45589;-77
2023/05/22 08:41:14;;;;;;;;;23.25;21.25;;;;;18.61;62.85;101287.88;4845201;29;50010;-78
2023/05/22 08:43:40;;;;;;;;;23.00;21.50;;;;;18.58;62.45;101275.41;4844047;29;45494;-80
2023/05/22 08:46:07;;;;;;;;;24.75;18.00;;;;;18.68;62.39;101287.44;4843880;29;46253;-82
2023/05/22 08:48:33;;;;;;;;;21.00;21.00;;;;;18.69;62.12;101274.78;4845035;29;45518;-85
2023/05/22 08:51:04;;;;;;;;;18.50;17.50;;;;;18.80;62.16;101287.69;4845652;29;45664;-80
2023/05/22 08:53:37;;;;;;;;;19.25;18.00;;;;;18.83;62.07;101290.25;4844448;29;45386;-78
2023/05/22 08:56:07;;;;;;;;;18.00;17.00;;;;;18.88;61.86;101289.00;4844519;29;45442;-78
2023/05/22 08:58:34;;;;;;;;;17.25;15.00;;;;;18.82;62.37;101281.22;4844727;29;45623;-78
2023/05/22 09:01:01;;;;;;;;;19.00;18.50;;;;;18.96;61.93;101288.56;4846205;29;45485;-78
2023/05/22 09:03:31;;;;;;;;;17.25;15.00;;;;;18.92;62.22;101276.19;4844927;29;45443;-78
2023/05/22 09:05:57;;;;;;;;;17.50;14.75;;;;;19.06;61.59;101287.06;4845081;29;46163;-77
2023/05/22 09:08:22;;;;;;;;;18.25;16.25;;;;;19.02;61.32;101281.91;4843192;29;45412;-78
2023/05/22 09:10:48;;;;;;;;;19.25;18.50;;;;;19.10;61.38;101290.47;4841669;29;46527;-78
2023/05/22 09:13:26;;;;;;;;;19.75;15.25;;;;;19.16;61.54;101294.63;4841574;29;45509;-78
2023/05/22 09:15:52;;;;;;;;;15.50;14.25;;;;;19.17;61.84;101291.81;4845316;29;45324;-78
2023/05/22 09:18:17;;;;;;;;;20.50;17.50;;;;;19.23;61.31;101299.59;4843647;29;45318;-78
2023/05/22 09:20:43;;;;;;;;;18.50;15.75;;;;;19.23;61.56;101293.31;4845346;29;45624;-78
2023/05/22 09:23:13;;;;;;;;;15.50;13.50;;;;;19.31;61.57;101298.25;4844188;29;45320;-78
2023/05/22 09:25:40;;;;;;;;;22.50;19.50;;;;;19.37;61.01;101300.59;4844778;29;45347;-78
2023/05/22 09:28:06;;;;;;;;;23.25;18.25;;;;;19.31;61.31;101284.72;4842737;29;45985;-78
2023/05/22 09:30:35;;;;;;;;;22.25;18.25;;;;;19.35;60.85;101297.97;4836991;29;45451;-78
2023/05/22 09:33:00;;;;;;;;;18.00;16.25;;;;;19.38;60.95;101296.94;4846550;29;45596;-78
2023/05/22 09:35:28;;;;;;;;;18.25;14.50;;;;;19.41;61.01;101302.13;4842352;29;45355;-78
2023/05/22 09:37:54;;;;;;;;;22.00;19.75;;;;;19.42;61.15;101293.91;4836400;29;45586;-78
2023/05/22 09:40:19;;;;;;;;;18.75;17.00;;;;;19.51;61.03;101303.34;4844646;29;45702;-78
2023/05/22 09:42:44;;;;;;;;;14.50;14.25;;;;;19.56;60.86;101303.94;4843173;29;45454;-78
2023/05/22 09:45:10;;;;;;;;;21.75;19.25;;;;;19.60;61.07;101304.59;4860469;29;47008;-78
2023/05/22 09:47:36;;;;;;;;;12.75;12.00;;;;;19.50;60.76;101276.34;4843042;29;45260;-83
2023/05/22 09:50:05;;;;;;;;;16.75;16.50;;;;;19.67;61.52;101296.97;4842529;29;45494;-83
2023/05/22 09:52:34;;;;;;;;;26.00;21.00;;;;;19.61;60.77;101277.44;4842870;29;45296;-84
2023/05/22 09:55:07;;;;;;;;;19.00;18.25;;;;;19.76;61.10;101289.19;4843695;29;46101;-83
2023/05/22 09:57:39;;;;;;;;;24.00;22.75;;;;;19.80;61.26;101288.00;4857947;29;45998;-84
2023/05/22 10:00:10;;;;;;;;;20.75;17.50;;;;;19.76;61.11;101270.22;4843286;29;45410;-84
2023/05/22 10:02:37;;;;;;;;;17.00;15.75;;;;;19.83;60.70;101269.81;4843278;29;45353;-83
2023/05/22 10:05:07;;;;;;;;;19.50;16.50;;;;;19.91;60.76;101281.94;4840048;29;47134;-86
2023/05/22 10:07:41;;;;;;;;;19.00;17.25;;;;;19.93;60.59;101266.44;4857755;29;45901;-85
2023/05/22 10:10:08;;;;;;;;;19.50;16.75;;;;;20.03;60.58;101280.28;4844327;29;45586;-85
2023/05/22 10:12:41;;;;;;;;;16.25;14.25;;;;;19.96;61.31;101262.66;4842908;29;45416;-85
2023/05/22 10:15:08;;;;;;;;;18.00;14.75;;;;;20.00;61.37;101258.78;4842341;29;45423;-83
2023/05/22 10:17:35;;;;;;;;;15.25;15.00;;;;;20.17;60.73;101271.25;4856873;29;45518;-85
2023/05/22 10:20:06;;;;;;;;;16.50;14.50;;;;;20.29;60.46;101269.59;4842861;29;45551;-85
2023/05/22 10:22:35;;;;;;;;;17.75;13.50;;;;;20.33;60.67;101266.59;4842822;29;45299;-85
2023/05/22 10:25:01;;;;;;;;;20.75;19.75;;;;;20.31;60.18;101260.41;4842842;29;45460;-85
2023/05/22 10:27:33;;;;;;;;;17.25;16.25;;;;;20.40;60.33;101271.59;4841988;29;45386;-85
2023/05/22 10:30:23;;;;;;;;;17.00;16.25;;;;;20.51;60.91;101278.09;4844540;29;45692;-85
2023/05/22 10:32:56;;;;;;;;;18.50;18.25;;;;;20.57;59.92;101281.34;4846277;29;45482;-84
2023/05/22 10:35:38;;;;;;;;;21.75;20.75;;;;;20.52;60.28;101268.94;4844795;29;45603;-84
2023/05/22 10:38:15;;;;;;;;;23.50;18.75;;;;;20.53;59.55;101259.88;4845902;29;45686;-84
2023/05/22 10:40:44;;;;;;;;;27.25;23.25;;;;;20.62;60.62;101274.66;4844994;29;45373;-83
2023/05/22 10:43:10;;;;;;;;;24.75;22.75;;;;;20.64;60.23;101272.72;4844365;29;45425;-84
2023/05/22 10:45:35;;;;;;;;;16.25;15.50;;;;;20.62;60.54;101262.94;4843623;29;47202;-85
2023/05/22 10:48:05;;;;;;;;;20.00;19.00;;;;;20.69;59.89;101248.00;4845031;29;45382;-85
2023/05/22 10:50:31;;;;;;;;;15.75;15.75;;;;;20.80;60.26;101263.56;4839667;29;45804;-85
2023/05/22 10:53:28;;;;;;;;;23.25;18.25;;;;;20.86;59.73;101265.88;4849163;29;45866;-85
2023/05/22 10:55:55;;;;;;;;;19.75;19.00;;;;;20.87;59.29;101263.06;4840822;29;45488;-85
2023/05/22 10:58:25;;;;;;;;;20.75;20.25;;;;;20.95;59.69;101259.84;4859880;29;45815;-85
2023/05/22 11:01:06;;;;;;;;;20.00;18.75;;;;;20.95;59.57;101246.25;4840179;29;45443;-85
2023/05/22 11:03:52;;;;;;;;;17.50;16.50;;;;;21.07;60.11;101252.69;4844508;29;45553;-82
2023/05/22 11:06:40;;;;;;;;;20.25;19.75;;;;;21.08;59.93;101247.16;4844923;29;47548;-85
2023/05/22 11:09:30;;;;;;;;;22.50;19.50;;;;;21.18;59.03;101246.50;4841046;29;45687;-84
2023/05/22 11:12:12;;;;;;;;;25.25;23.00;;;;;21.19;58.94;101248.25;4840777;29;45441;-84
2023/05/22 11:14:37;;;;;;;;;26.00;21.00;;;;;21.20;58.93;101252.69;4846099;29;45529;-85
2023/05/22 11:17:05;;;;;;;;;20.50;19.00;;;;;21.17;58.58;101250.22;4846395;29;46082;-85
2023/05/22 11:19:30;;;;;;;;;20.50;20.50;;;;;21.18;59.07;101250.09;4844952;29;45344;-85
2023/05/22 11:22:00;;;;;;;;;21.75;21.00;;;;;21.20;59.00;101249.97;4840944;29;45641;-85
2023/05/22 11:24:32;;;;;;;;;28.25;23.50;;;;;21.18;59.14;101231.09;4848530;29;45330;-84
2023/05/22 11:27:07;;;;;;;;;24.50;23.75;;;;;21.25;59.27;101234.25;4842367;29;45559;-85
2023/05/22 11:29:34;;;;;;;;;26.50;23.75;;;;;21.36;58.75;101247.09;4843805;29;45385;-85
2023/05/22 11:32:00;;;;;;;;;28.25;27.50;;;;;21.40;58.45;101254.91;4845902;29;45346;-84
2023/05/22 11:34:26;;;;;;;;;25.75;24.50;;;;;21.36;58.78;101242.50;4860181;29;45635;-84
2023/05/22 11:36:57;;;;;;;;;22.75;21.75;;;;;21.36;58.83;101239.78;4840343;29;47247;-86
2023/05/22 11:39:22;;;;;;;;;25.75;25.00;;;;;21.42;58.69;101235.81;4844011;29;45488;-83
2023/05/22 11:41:48;;;;;;;;;24.00;22.25;;;;;21.42;58.74;101224.94;4856909;29;45726;-83
2023/05/22 11:44:13;;;;;;;;;27.50;23.75;;;;;21.40;58.18;101218.72;4840083;29;45866;-83
2023/05/22 11:46:39;;;;;;;;;22.50;20.00;;;;;21.54;58.38;101239.53;4843721;29;52901;-82
2023/05/22 11:49:05;;;;;;;;;21.25;21.25;;;;;21.54;57.97;101232.25;4842819;29;45489;-83
2023/05/22 11:51:30;;;;;;;;;21.25;21.25;;;;;21.45;58.56;101219.25;4847733;29;45557;-82
2023/05/22 11:53:56;;;;;;;;;20.00;17.75;;;;;21.59;58.74;101240.06;4846460;29;45520;-80
2023/05/22 11:56:21;;;;;;;;;26.00;24.50;;;;;21.60;58.59;101229.09;4843057;29;46010;-82
2023/05/22 11:58:50;;;;;;;;;21.25;18.00;;;;;21.58;58.06;101222.03;4845529;29;45540;-81
2023/05/22 12:01:16;;;;;;;;;22.50;22.50;;;;;21.61;58.07;101225.38;4843980;29;45460;-81
2023/05/22 12:03:41;;;;;;;;;22.50;22.50;;;;;21.65;57.89;101226.91;4840984;29;45790;-81
2023/05/22 12:06:08;;;;;;;;;25.50;23.75;;;;;21.75;58.09;101234.41;4844609;29;45706;-81
2023/05/22 12:08:33;;;;;;;;;24.00;23.50;;;;;21.77;57.63;101236.03;4846144;29;45709;-81
2023/05/22 12:10:59;;;;;;;;;26.00;23.50;;;;;21.78;57.68;101216.03;4844229;29;45665;-81
2023/05/22 12:13:27;;;;;;;;;26.00;23.50;;;;;21.83;57.29;101223.84;4841695;29;45600;-82
2023/05/22 12:15:55;;;;;;;;;19.50;18.50;;;;;21.86;57.44;101229.06;4845701;29;45412;-82
2023/05/22 12:18:20;;;;;;;;;21.25;19.25;;;;;21.90;57.83;101225.16;4845256;29;45412;-82
2023/05/22 12:20:46;;;;;;;;;28.00;23.50;;;;;21.88;57.85;101213.50;4845004;29;45283;-83
2023/05/22 12:23:25;;;;;;;;;23.50;23.50;;;;;22.01;57.66;101224.38;4845616;29;45211;-83
2023/05/22 12:25:57;;;;;;;;;19.00;19.00;;;;;22.06;57.36;101224.88;4839229;29;45597;-82
2023/05/22 12:28:23;;;;;;;;;23.00;21.00;;;;;21.99;57.37;101216.31;4841725;29;45440;-82
2023/05/22 12:30:53;;;;;;;;;24.25;22.75;;;;;22.12;57.84;101224.44;4844544;29;45809;-82
2023/05/22 12:33:19;;;;;;;;;24.00;24.00;;;;;22.06;57.00;101214.03;4845209;29;45283;-82
2023/05/22 12:35:44;;;;;;;;;24.50;22.75;;;;;22.12;56.66;101221.72;4842480;29;48488;-82
2023/05/22 12:38:10;;;;;;;;;22.75;22.75;;;;;22.11;56.80;101219.97;4844965;29;45485;-82
2023/05/22 12:40:35;;;;;;;;;24.00;24.00;;;;;22.16;56.94;101225.94;4844114;29;45186;-82
2023/05/22 12:43:01;;;;;;;;;20.25;20.00;;;;;22.18;56.39;101228.56;4839201;29;45757;-82
2023/05/22 12:45:26;;;;;;;;;21.00;19.75;;;;;22.15;56.72;101221.50;4846437;29;46147;-82
2023/05/22 12:47:52;;;;;;;;;23.50;23.50;;;;;22.23;56.60;101225.50;4843383;29;45447;-82
2023/05/22 12:50:17;;;;;;;;;23.00;20.25;;;;;22.26;56.40;101236.16;4842932;29;47055;-82
2023/05/22 12:52:42;;;;;;;;;25.75;23.50;;;;;22.29;55.96;101235.97;4842065;29;46233;-82
2023/05/22 12:55:09;;;;;;;;;25.25;22.50;;;;;22.27;55.77;101222.44;4842042;29;46400;-82
2023/05/22 12:57:35;;;;;;;;;22.50;22.50;;;;;22.28;55.73;101228.75;4838491;29;45462;-82
2023/05/22 13:00:00;;;;;;;;;22.25;21.50;;;;;22.35;55.90;101233.66;4842765;29;45454;-82
2023/05/22 13:02:25;;;;;;;;;23.25;23.25;;;;;22.35;55.88;101225.50;4842480;29;46260;-82
2023/05/22 13:04:51;;;;;;;;;23.25;19.75;;;;;22.32;56.05;101222.13;4841193;29;48021;-82
2023/05/22 13:07:16;;;;;;;;;21.25;20.25;;;;;22.34;55.64;101223.75;4846558;29;45482;-82
2023/05/22 13:09:41;;;;;;;;;20.75;20.75;;;;;22.43;55.85;101232.22;4844258;29;45646;-82